createdAt,value
2023-02-19T00:00:31.519Z,985.08
2023-02-19T00:01:31.512Z,985.07
2023-02-19T00:02:31.523Z,985.04
2023-02-19T00:03:31.543Z,984.99
2023-02-19T00:04:31.528Z,984.95
2023-02-19T00:05:31.493Z,984.91
2023-02-19T00:06:31.478Z,984.92
2023-02-19T00:07:31.472Z,984.92
2023-02-19T00:08:31.490Z,984.89
2023-02-19T00:09:31.480Z,984.90
2023-02-19T00:10:31.501Z,984.90
2023-02-19T00:11:31.466Z,984.92
2023-02-19T00:12:31.446Z,984.91
2023-02-19T00:13:31.454Z,984.90
2023-02-19T00:14:31.467Z,984.87
2023-02-19T00:15:31.463Z,984.85
2023-02-19T00:16:31.441Z,984.82
2023-02-19T00:17:31.449Z,984.81
2023-02-19T00:18:31.422Z,984.79
2023-02-19T00:19:31.407Z,984.74
2023-02-19T00:20:31.401Z,984.67
2023-02-19T00:21:31.406Z,984.66
2023-02-19T00:22:31.411Z,984.66
2023-02-19T00:23:31.387Z,984.67
2023-02-19T00:24:31.395Z,984.66
2023-02-19T00:25:31.395Z,984.60
2023-02-19T00:26:31.389Z,984.57
2023-02-19T00:27:31.373Z,984.55
2023-02-19T00:28:31.380Z,984.55
2023-02-19T00:29:31.384Z,984.50
2023-02-19T00:30:31.392Z,984.49
2023-02-19T00:31:33.038Z,984.47
2023-02-19T00:32:31.514Z,984.51
2023-02-19T00:33:31.351Z,984.48
2023-02-19T00:34:31.351Z,984.47
2023-02-19T00:35:31.324Z,984.45
2023-02-19T00:36:31.374Z,984.45
2023-02-19T00:37:31.352Z,984.47
2023-02-19T00:38:31.312Z,984.50
2023-02-19T00:39:31.297Z,984.52
2023-02-19T00:40:31.324Z,984.57
2023-02-19T00:41:31.297Z,984.65
2023-02-19T00:42:31.298Z,984.70
2023-02-19T00:43:31.290Z,984.70
2023-02-19T00:44:31.281Z,984.72
2023-02-19T00:45:31.269Z,984.66
2023-02-19T00:46:31.345Z,984.60
2023-02-19T00:47:31.281Z,984.58
2023-02-19T00:48:31.245Z,984.52
2023-02-19T00:49:31.246Z,984.51
2023-02-19T00:50:31.240Z,984.49
2023-02-19T00:51:31.224Z,984.50
2023-02-19T00:52:31.247Z,984.50
2023-02-19T00:53:31.232Z,984.50
2023-02-19T00:54:31.225Z,984.44
2023-02-19T00:55:31.209Z,984.45
2023-02-19T00:56:31.194Z,984.46
2023-02-19T00:57:31.177Z,984.46
2023-02-19T00:58:31.192Z,984.44
2023-02-19T00:59:31.185Z,984.41
2023-02-19T01:00:31.165Z,984.36
2023-02-19T01:01:31.182Z,984.37
2023-02-19T01:02:31.162Z,984.31
2023-02-19T01:03:31.144Z,984.34
2023-02-19T01:04:31.191Z,984.37
2023-02-19T01:05:31.139Z,984.40
2023-02-19T01:06:31.130Z,984.43
2023-02-19T01:07:31.121Z,984.41
2023-02-19T01:08:31.130Z,984.41
2023-02-19T01:09:31.121Z,984.41
2023-02-19T01:10:31.137Z,984.38
2023-02-19T01:11:31.102Z,984.38
2023-02-19T01:12:31.101Z,984.37
2023-02-19T01:13:31.110Z,984.36
2023-02-19T01:14:31.088Z,984.35
2023-02-19T01:15:31.088Z,984.34
2023-02-19T01:16:31.093Z,984.37
2023-02-19T01:17:31.061Z,984.39
2023-02-19T01:18:31.072Z,984.35
2023-02-19T01:19:31.052Z,984.32
2023-02-19T01:20:31.039Z,984.28
2023-02-19T01:21:31.048Z,984.28
2023-02-19T01:22:31.032Z,984.27
2023-02-19T01:23:31.026Z,984.22
2023-02-19T01:24:31.030Z,984.27
2023-02-19T01:25:31.023Z,984.21
2023-02-19T01:26:31.048Z,984.20
2023-02-19T01:27:30.998Z,984.18
2023-02-19T01:28:30.984Z,984.18
2023-02-19T01:29:31.001Z,984.17
2023-02-19T01:30:30.982Z,984.17
2023-02-19T01:31:31.084Z,984.19
2023-02-19T01:32:31.011Z,984.17
2023-02-19T01:33:30.973Z,984.22
2023-02-19T01:34:30.959Z,984.17
2023-02-19T01:35:30.947Z,984.14
2023-02-19T01:36:30.957Z,984.08
2023-02-19T01:37:30.930Z,984.11
2023-02-19T01:38:30.930Z,984.08
2023-02-19T01:39:30.967Z,984.05
2023-02-19T01:40:30.947Z,984.10
2023-02-19T01:41:30.911Z,984.13
2023-02-19T01:42:30.924Z,984.12
2023-02-19T01:43:30.920Z,984.10
2023-02-19T01:44:30.913Z,984.12
2023-02-19T01:45:30.914Z,984.12
2023-02-19T01:46:30.953Z,984.10
2023-02-19T01:47:30.910Z,984.10
2023-02-19T01:48:30.907Z,984.00
2023-02-19T01:49:30.881Z,984.00
2023-02-19T01:50:30.892Z,983.93
2023-02-19T01:51:30.907Z,983.96
2023-02-19T01:52:30.857Z,983.95
2023-02-19T01:53:30.865Z,983.92
2023-02-19T01:54:30.855Z,983.91
2023-02-19T01:55:30.888Z,983.81
2023-02-19T01:56:30.847Z,983.85
2023-02-19T01:57:30.825Z,983.82
2023-02-19T01:58:30.819Z,983.85
2023-02-19T01:59:30.836Z,983.90
2023-02-19T02:00:30.867Z,983.87
2023-02-19T02:01:30.846Z,983.84
2023-02-19T02:02:30.796Z,983.85
2023-02-19T02:03:30.813Z,983.83
2023-02-19T02:04:30.793Z,983.80
2023-02-19T02:05:30.770Z,983.77
2023-02-19T02:06:30.768Z,983.73
2023-02-19T02:07:30.782Z,983.81
2023-02-19T02:08:30.767Z,983.79
2023-02-19T02:09:30.761Z,983.73
2023-02-19T02:10:30.757Z,983.74
2023-02-19T02:11:30.740Z,983.72
2023-02-19T02:12:30.735Z,983.70
2023-02-19T02:13:30.730Z,983.63
2023-02-19T02:14:30.744Z,983.70
2023-02-19T02:15:30.713Z,983.69
2023-02-19T02:16:30.767Z,983.70
2023-02-19T02:17:30.720Z,983.68
2023-02-19T02:18:30.703Z,983.67
2023-02-19T02:19:30.694Z,983.60
2023-02-19T02:20:30.684Z,983.58
2023-02-19T02:21:30.676Z,983.52
2023-02-19T02:22:30.680Z,983.54
2023-02-19T02:23:30.685Z,983.52
2023-02-19T02:24:30.699Z,983.59
2023-02-19T02:25:30.655Z,983.63
2023-02-19T02:26:30.651Z,983.66
2023-02-19T02:27:30.652Z,983.61
2023-02-19T02:28:30.665Z,983.64
2023-02-19T02:29:30.650Z,983.59
2023-02-19T02:30:30.723Z,983.62
2023-02-19T02:31:30.706Z,983.63
2023-02-19T02:32:30.612Z,983.65
2023-02-19T02:33:30.607Z,983.64
2023-02-19T02:34:30.610Z,983.63
2023-02-19T02:35:30.599Z,983.62
2023-02-19T02:36:30.608Z,983.58
2023-02-19T02:37:30.580Z,983.55
2023-02-19T02:38:30.590Z,983.52
2023-02-19T02:39:30.594Z,983.47
2023-02-19T02:40:30.599Z,983.42
2023-02-19T02:41:30.584Z,983.45
2023-02-19T02:42:30.567Z,983.41
2023-02-19T02:43:30.569Z,983.41
2023-02-19T02:44:30.553Z,983.33
2023-02-19T02:45:30.566Z,983.40
2023-02-19T02:46:30.555Z,983.39
2023-02-19T02:47:30.540Z,983.43
2023-02-19T02:48:30.536Z,983.46
2023-02-19T02:49:30.535Z,983.32
2023-02-19T02:50:30.520Z,983.25
2023-02-19T02:51:30.501Z,983.18
2023-02-19T02:52:30.500Z,983.20
2023-02-19T02:53:30.496Z,983.17
2023-02-19T02:54:30.481Z,983.13
2023-02-19T02:55:30.511Z,983.20
2023-02-19T02:56:30.481Z,983.21
2023-02-19T02:57:30.472Z,983.26
2023-02-19T02:58:30.475Z,983.25
2023-02-19T02:59:30.456Z,983.25
2023-02-19T03:00:30.454Z,983.25
2023-02-19T03:01:30.469Z,983.29
2023-02-19T03:02:30.482Z,983.28
2023-02-19T03:03:30.454Z,983.29
2023-02-19T03:04:30.430Z,983.24
2023-02-19T03:05:30.416Z,983.27
2023-02-19T03:06:30.412Z,983.25
2023-02-19T03:07:30.418Z,983.37
2023-02-19T03:08:30.406Z,983.28
2023-02-19T03:09:30.442Z,983.29
2023-02-19T03:10:30.431Z,983.31
2023-02-19T03:11:30.388Z,983.27
2023-02-19T03:12:30.388Z,983.27
2023-02-19T03:13:30.374Z,983.33
2023-02-19T03:14:30.367Z,983.30
2023-02-19T03:15:30.388Z,983.28
2023-02-19T03:16:30.390Z,983.28
2023-02-19T03:17:30.398Z,983.26
2023-02-19T03:18:30.343Z,983.29
2023-02-19T03:19:30.340Z,983.29
2023-02-19T03:20:30.341Z,983.32
2023-02-19T03:21:30.317Z,983.30
2023-02-19T03:22:30.313Z,983.29
2023-02-19T03:23:30.309Z,983.30
2023-02-19T03:24:30.300Z,983.28
2023-02-19T03:25:30.313Z,983.27
2023-02-19T03:26:30.290Z,983.29
2023-02-19T03:27:30.306Z,983.25
2023-02-19T03:28:30.281Z,983.28
2023-02-19T03:29:30.267Z,983.26
2023-02-19T03:30:30.317Z,983.26
2023-02-19T03:31:30.389Z,983.27
2023-02-19T03:32:30.290Z,983.20
2023-02-19T03:33:30.250Z,983.21
2023-02-19T03:34:30.245Z,983.24
2023-02-19T03:35:30.247Z,983.26
2023-02-19T03:36:30.242Z,983.17
2023-02-19T03:37:30.226Z,983.20
2023-02-19T03:38:30.256Z,983.24
2023-02-19T03:39:30.204Z,983.18
2023-02-19T03:40:30.213Z,983.21
2023-02-19T03:41:30.224Z,983.20
2023-02-19T03:42:30.196Z,983.18
2023-02-19T03:43:30.185Z,983.20
2023-02-19T03:44:30.174Z,983.13
2023-02-19T03:45:30.178Z,983.17
2023-02-19T03:46:30.166Z,983.17
2023-02-19T03:47:30.179Z,983.18
2023-02-19T03:48:30.158Z,983.20
2023-02-19T03:49:30.142Z,983.17
2023-02-19T03:50:30.158Z,983.15
2023-02-19T03:51:30.132Z,983.09
2023-02-19T03:52:30.138Z,983.07
2023-02-19T03:53:30.141Z,982.97
2023-02-19T03:54:30.114Z,982.93
2023-02-19T03:55:30.102Z,982.93
2023-02-19T03:56:30.120Z,983.00
2023-02-19T03:57:30.112Z,983.06
2023-02-19T03:58:30.110Z,983.10
2023-02-19T03:59:30.085Z,983.12
2023-02-19T04:00:30.074Z,983.14
2023-02-19T04:01:30.062Z,983.15
2023-02-19T04:02:30.191Z,983.18
2023-02-19T04:03:30.061Z,983.17
2023-02-19T04:04:30.092Z,983.15
2023-02-19T04:05:30.066Z,983.14
2023-02-19T04:06:30.042Z,983.19
2023-02-19T04:07:30.038Z,983.14
2023-02-19T04:08:30.035Z,983.20
2023-02-19T04:09:30.015Z,983.19
2023-02-19T04:10:30.057Z,983.20
2023-02-19T04:11:30.040Z,983.16
2023-02-19T04:12:30.003Z,983.19
2023-02-19T04:13:30.000Z,983.22
2023-02-19T04:14:30.000Z,983.21
2023-02-19T04:15:30.001Z,983.17
2023-02-19T04:16:29.991Z,983.23
2023-02-19T04:17:29.990Z,983.14
2023-02-19T04:18:29.963Z,983.23
2023-02-19T04:19:29.959Z,983.25
2023-02-19T04:20:29.947Z,983.25
2023-02-19T04:21:29.949Z,983.24
2023-02-19T04:22:29.940Z,983.25
2023-02-19T04:23:29.946Z,983.25
2023-02-19T04:24:29.930Z,983.24
2023-02-19T04:25:29.913Z,983.24
2023-02-19T04:26:29.910Z,983.26
2023-02-19T04:27:29.902Z,983.24
2023-02-19T04:28:29.916Z,983.28
2023-02-19T04:29:29.902Z,983.25
2023-02-19T04:30:29.989Z,983.26
2023-02-19T04:31:30.021Z,983.25
2023-02-19T04:32:29.856Z,983.26
2023-02-19T04:33:29.870Z,983.23
2023-02-19T04:34:29.863Z,983.25
2023-02-19T04:35:29.879Z,983.27
2023-02-19T04:36:29.843Z,983.32
2023-02-19T04:37:29.853Z,983.28
2023-02-19T04:38:29.834Z,983.29
2023-02-19T04:39:29.840Z,983.29
2023-02-19T04:40:29.808Z,983.27
2023-02-19T04:41:29.805Z,983.28
2023-02-19T04:42:29.798Z,983.33
2023-02-19T04:43:36.798Z,983.35
2023-02-19T04:44:29.791Z,983.34
2023-02-19T04:45:29.792Z,983.31
2023-02-19T04:46:29.790Z,983.29
2023-02-19T04:47:29.755Z,983.39
2023-02-19T04:48:29.771Z,983.37
2023-02-19T04:49:29.752Z,983.45
2023-02-19T04:50:29.737Z,983.44
2023-02-19T04:51:29.749Z,983.46
2023-02-19T04:52:29.728Z,983.44
2023-02-19T04:53:29.745Z,983.50
2023-02-19T04:54:29.715Z,983.50
2023-02-19T04:55:29.715Z,983.48
2023-02-19T04:56:29.705Z,983.51
2023-02-19T04:57:29.692Z,983.52
2023-02-19T04:58:29.683Z,983.51
2023-02-19T04:59:29.700Z,983.50
2023-02-19T05:00:29.674Z,983.49
2023-02-19T05:01:29.716Z,983.54
2023-02-19T05:02:29.671Z,983.55
2023-02-19T05:03:29.650Z,983.53
2023-02-19T05:04:29.711Z,983.56
2023-02-19T05:05:29.633Z,983.50
2023-02-19T05:06:29.638Z,983.54
2023-02-19T05:07:29.625Z,983.59
2023-02-19T05:08:29.618Z,983.58
2023-02-19T05:09:29.605Z,983.58
2023-02-19T05:10:29.616Z,983.57
2023-02-19T05:11:29.593Z,983.62
2023-02-19T05:12:29.592Z,983.74
2023-02-19T05:13:29.615Z,983.78
2023-02-19T05:14:29.606Z,983.85
2023-02-19T05:15:29.576Z,983.83
2023-02-19T05:16:29.577Z,983.84
2023-02-19T05:17:29.589Z,983.95
2023-02-19T05:18:29.558Z,983.94
2023-02-19T05:19:29.576Z,983.88
2023-02-19T05:20:29.545Z,983.87
2023-02-19T05:21:29.553Z,983.95
2023-02-19T05:22:29.552Z,984.02
2023-02-19T05:23:29.523Z,984.01
2023-02-19T05:24:29.538Z,983.92
2023-02-19T05:25:29.541Z,983.90
2023-02-19T05:26:29.538Z,983.97
2023-02-19T05:27:29.504Z,983.93
2023-02-19T05:28:29.493Z,983.85
2023-02-19T05:29:29.493Z,983.88
2023-02-19T05:30:29.537Z,983.83
2023-02-19T05:31:29.582Z,983.92
2023-02-19T05:32:29.490Z,984.01
2023-02-19T05:33:29.464Z,983.96
2023-02-19T05:34:29.465Z,983.96
2023-02-19T05:35:29.454Z,983.99
2023-02-19T05:36:29.447Z,984.00
2023-02-19T05:37:29.458Z,984.01
2023-02-19T05:38:29.438Z,984.09
2023-02-19T05:39:29.436Z,984.06
2023-02-19T05:40:29.439Z,984.11
2023-02-19T05:41:29.409Z,984.09
2023-02-19T05:42:29.405Z,984.16
2023-02-19T05:43:29.395Z,984.17
2023-02-19T05:44:29.385Z,984.18
2023-02-19T05:45:29.403Z,984.18
2023-02-19T05:46:29.473Z,984.17
2023-02-19T05:47:29.363Z,984.19
2023-02-19T05:48:29.363Z,984.19
2023-02-19T05:49:29.351Z,984.22
2023-02-19T05:50:29.352Z,984.21
2023-02-19T05:51:29.360Z,984.21
2023-02-19T05:52:29.347Z,984.25
2023-02-19T05:53:29.344Z,984.27
2023-02-19T05:54:29.325Z,984.27
2023-02-19T05:55:29.314Z,984.28
2023-02-19T05:56:29.337Z,984.29
2023-02-19T05:57:29.337Z,984.30
2023-02-19T05:58:29.336Z,984.33
2023-02-19T05:59:29.293Z,984.33
2023-02-19T06:00:29.304Z,984.27
2023-02-19T06:01:29.275Z,984.26
2023-02-19T06:02:29.324Z,984.31
2023-02-19T06:03:29.308Z,984.30
2023-02-19T06:04:29.265Z,984.31
2023-02-19T06:05:29.254Z,984.30
2023-02-19T06:06:29.245Z,984.33
2023-02-19T06:07:29.242Z,984.38
2023-02-19T06:08:29.253Z,984.37
2023-02-19T06:09:29.226Z,984.44
2023-02-19T06:10:29.238Z,984.46
2023-02-19T06:11:29.226Z,984.46
2023-02-19T06:12:29.212Z,984.45
2023-02-19T06:13:29.200Z,984.47
2023-02-19T06:14:29.194Z,984.47
2023-02-19T06:15:29.186Z,984.49
2023-02-19T06:16:29.286Z,984.49
2023-02-19T06:17:29.173Z,984.51
2023-02-19T06:18:29.172Z,984.51
2023-02-19T06:19:29.182Z,984.52
2023-02-19T06:20:29.161Z,984.56
2023-02-19T06:21:29.150Z,984.55
2023-02-19T06:22:29.170Z,984.61
2023-02-19T06:23:29.136Z,984.61
2023-02-19T06:24:29.155Z,984.64
2023-02-19T06:25:29.142Z,984.64
2023-02-19T06:26:29.113Z,984.65
2023-02-19T06:27:29.108Z,984.65
2023-02-19T06:28:29.106Z,984.68
2023-02-19T06:29:29.091Z,984.69
2023-02-19T06:30:29.143Z,984.68
2023-02-19T06:31:29.174Z,984.71
2023-02-19T06:32:29.092Z,984.73
2023-02-19T06:33:29.066Z,984.75
2023-02-19T06:34:29.057Z,984.74
2023-02-19T06:35:29.047Z,984.77
2023-02-19T06:36:29.043Z,984.77
2023-02-19T06:37:29.060Z,984.82
2023-02-19T06:38:29.049Z,984.85
2023-02-19T06:39:29.029Z,984.87
2023-02-19T06:40:29.026Z,984.90
2023-02-19T06:41:29.016Z,984.88
2023-02-19T06:42:29.015Z,984.92
2023-02-19T06:43:29.012Z,984.95
2023-02-19T06:44:29.031Z,984.98
2023-02-19T06:45:28.996Z,984.99
2023-02-19T06:46:29.028Z,984.97
2023-02-19T06:47:28.982Z,984.98
2023-02-19T06:48:28.992Z,984.95
2023-02-19T06:49:28.967Z,984.96
2023-02-19T06:50:28.989Z,984.97
2023-02-19T06:51:28.962Z,985.00
2023-02-19T06:52:28.967Z,984.99
2023-02-19T06:53:28.965Z,984.98
2023-02-19T06:54:28.941Z,985.02
2023-02-19T06:55:28.936Z,985.02
2023-02-19T06:56:28.928Z,985.04
2023-02-19T06:57:28.918Z,985.06
2023-02-19T06:58:28.921Z,985.07
2023-02-19T06:59:28.930Z,985.10
2023-02-19T07:00:28.904Z,985.15
2023-02-19T07:01:28.906Z,985.20
2023-02-19T07:02:28.896Z,985.21
2023-02-19T07:03:28.881Z,985.22
2023-02-19T07:04:28.980Z,985.25
2023-02-19T07:05:28.901Z,985.25
2023-02-19T07:06:28.869Z,985.25
2023-02-19T07:07:28.863Z,985.23
2023-02-19T07:08:29.738Z,985.25
2023-02-19T07:09:28.881Z,985.27
2023-02-19T07:10:28.873Z,985.28
2023-02-19T07:11:28.841Z,985.30
2023-02-19T07:12:28.832Z,985.32
2023-02-19T07:13:28.839Z,985.32
2023-02-19T07:14:28.821Z,985.34
2023-02-19T07:15:28.819Z,985.35
2023-02-19T07:16:28.886Z,985.37
2023-02-19T07:17:28.801Z,985.40
2023-02-19T07:18:28.816Z,985.44
2023-02-19T07:19:28.792Z,985.46
2023-02-19T07:20:28.783Z,985.45
2023-02-19T07:21:28.778Z,985.42
2023-02-19T07:22:28.774Z,985.45
2023-02-19T07:23:28.759Z,985.47
2023-02-19T07:24:28.776Z,985.50
2023-02-19T07:25:28.760Z,985.51
2023-02-19T07:26:28.749Z,985.54
2023-02-19T07:27:28.741Z,985.56
2023-02-19T07:28:28.735Z,985.56
2023-02-19T07:29:28.727Z,985.56
2023-02-19T07:30:28.762Z,985.57
2023-02-19T07:31:28.822Z,985.56
2023-02-19T07:32:28.708Z,985.54
2023-02-19T07:33:28.702Z,985.51
2023-02-19T07:34:28.701Z,985.56
2023-02-19T07:35:28.688Z,985.58
2023-02-19T07:36:28.705Z,985.62
2023-02-19T07:37:28.684Z,985.61
2023-02-19T07:38:28.683Z,985.65
2023-02-19T07:39:28.664Z,985.65
2023-02-19T07:40:28.731Z,985.69
2023-02-19T07:41:28.673Z,985.76
2023-02-19T07:42:28.684Z,985.81
2023-02-19T07:43:28.644Z,985.82
2023-02-19T07:44:28.669Z,985.85
2023-02-19T07:45:28.685Z,985.85
2023-02-19T07:46:28.623Z,985.88
2023-02-19T07:47:28.622Z,985.87
2023-02-19T07:48:28.616Z,985.91
2023-02-19T07:49:28.619Z,985.91
2023-02-19T07:50:28.595Z,985.93
2023-02-19T07:51:28.593Z,985.95
2023-02-19T07:52:28.593Z,985.94
2023-02-19T07:53:28.613Z,985.93
2023-02-19T07:54:28.593Z,985.91
2023-02-19T07:55:28.584Z,985.95
2023-02-19T07:56:28.573Z,985.94
2023-02-19T07:57:28.556Z,985.98
2023-02-19T07:58:28.553Z,986.00
2023-02-19T07:59:28.554Z,986.02
2023-02-19T08:00:28.573Z,986.05
2023-02-19T08:01:28.593Z,986.04
2023-02-19T08:02:28.544Z,986.03
2023-02-19T08:03:28.546Z,986.03
2023-02-19T08:04:28.519Z,986.09
2023-02-19T08:05:28.528Z,986.11
2023-02-19T08:06:28.506Z,986.11
2023-02-19T08:07:28.492Z,986.15
2023-02-19T08:08:28.527Z,986.14
2023-02-19T08:09:28.498Z,986.10
2023-02-19T08:10:28.499Z,986.15
2023-02-19T08:11:28.480Z,986.20
2023-02-19T08:12:28.473Z,986.17
2023-02-19T08:13:28.501Z,986.17
2023-02-19T08:14:28.484Z,986.21
2023-02-19T08:15:28.451Z,986.25
2023-02-19T08:16:41.878Z,986.26
2023-02-19T08:17:29.434Z,986.29
2023-02-19T08:18:28.442Z,986.32
2023-02-19T08:19:28.420Z,986.34
2023-02-19T08:20:28.415Z,986.37
2023-02-19T08:21:28.446Z,986.35
2023-02-19T08:22:28.399Z,986.41
2023-02-19T08:23:28.396Z,986.45
2023-02-19T08:24:28.399Z,986.48
2023-02-19T08:25:28.382Z,986.46
2023-02-19T08:26:28.405Z,986.48
2023-02-19T08:27:28.367Z,986.52
2023-02-19T08:28:28.360Z,986.56
2023-02-19T08:29:28.355Z,986.55
2023-02-19T08:30:28.596Z,986.56
2023-02-19T08:31:28.416Z,986.63
2023-02-19T08:32:28.382Z,986.63
2023-02-19T08:33:28.329Z,986.70
2023-02-19T08:34:28.326Z,986.74
2023-02-19T08:35:28.325Z,986.72
2023-02-19T08:36:28.333Z,986.73
2023-02-19T08:37:28.302Z,986.74
2023-02-19T08:38:28.323Z,986.76
2023-02-19T08:39:28.289Z,986.79
2023-02-19T08:40:28.301Z,986.81
2023-02-19T08:41:28.298Z,986.84
2023-02-19T08:42:28.262Z,986.86
2023-02-19T08:43:28.266Z,986.88
2023-02-19T08:44:28.266Z,986.88
2023-02-19T08:45:28.253Z,986.89
2023-02-19T08:46:28.278Z,986.91
2023-02-19T08:47:28.237Z,986.94
2023-02-19T08:48:28.262Z,986.93
2023-02-19T08:49:28.208Z,986.97
2023-02-19T08:50:28.217Z,986.99
2023-02-19T08:51:28.209Z,987.00
2023-02-19T08:52:28.245Z,986.98
2023-02-19T08:53:28.215Z,986.98
2023-02-19T08:54:28.210Z,986.98
2023-02-19T08:55:28.180Z,987.02
2023-02-19T08:56:28.171Z,987.04
2023-02-19T08:57:28.161Z,987.05
2023-02-19T08:58:28.182Z,987.05
2023-02-19T08:59:28.181Z,987.06
2023-02-19T09:00:28.175Z,987.04
2023-02-19T09:01:28.185Z,987.05
2023-02-19T09:02:28.129Z,987.06
2023-02-19T09:03:28.136Z,987.10
2023-02-19T09:04:28.181Z,987.08
2023-02-19T09:05:28.129Z,987.08
2023-02-19T09:06:28.125Z,987.08
2023-02-19T09:07:28.111Z,987.08
2023-02-19T09:08:28.085Z,987.11
2023-02-19T09:09:28.099Z,987.12
2023-02-19T09:10:28.066Z,987.12
2023-02-19T09:11:28.084Z,987.14
2023-02-19T09:12:28.069Z,987.17
2023-02-19T09:13:28.083Z,987.17
2023-02-19T09:14:28.075Z,987.19
2023-02-19T09:15:28.066Z,987.22
2023-02-19T09:16:28.055Z,987.23
2023-02-19T09:17:28.069Z,987.25
2023-02-19T09:18:28.028Z,987.26
2023-02-19T09:19:28.036Z,987.29
2023-02-19T09:20:28.002Z,987.29
2023-02-19T09:21:28.017Z,987.28
2023-02-19T09:22:28.018Z,987.28
2023-02-19T09:23:27.993Z,987.31
2023-02-19T09:24:27.975Z,987.31
2023-02-19T09:25:27.991Z,987.31
2023-02-19T09:26:27.966Z,987.30
2023-02-19T09:27:27.979Z,987.31
2023-02-19T09:28:27.958Z,987.34
2023-02-19T09:29:27.995Z,987.35
2023-02-19T09:30:28.003Z,987.35
2023-02-19T09:31:28.027Z,987.36
2023-02-19T09:32:27.928Z,987.38
2023-02-19T09:33:27.924Z,987.36
2023-02-19T09:34:27.925Z,987.34
2023-02-19T09:35:27.929Z,987.34
2023-02-19T09:36:27.923Z,987.36
2023-02-19T09:37:27.928Z,987.37
2023-02-19T09:38:27.881Z,987.38
2023-02-19T09:39:27.887Z,987.39
2023-02-19T09:40:27.928Z,987.40
2023-02-19T09:41:27.884Z,987.42
2023-02-19T09:42:27.905Z,987.42
2023-02-19T09:43:27.851Z,987.40
2023-02-19T09:44:27.841Z,987.35
2023-02-19T09:45:27.838Z,987.35
2023-02-19T09:46:27.884Z,987.37
2023-02-19T09:47:27.835Z,987.40
2023-02-19T09:48:27.849Z,987.43
2023-02-19T09:49:27.816Z,987.44
2023-02-19T09:50:27.854Z,987.52
2023-02-19T09:51:27.800Z,987.52
2023-02-19T09:52:27.790Z,987.58
2023-02-19T09:53:27.797Z,987.60
2023-02-19T09:54:27.857Z,987.63
2023-02-19T09:55:27.756Z,987.64
2023-02-19T09:56:27.749Z,987.64
2023-02-19T09:57:27.752Z,987.65
2023-02-19T09:58:27.774Z,987.66
2023-02-19T09:59:27.746Z,987.70
2023-02-19T10:00:27.738Z,987.70
2023-02-19T10:01:27.800Z,987.72
2023-02-19T10:02:27.719Z,987.74
2023-02-19T10:03:27.701Z,987.73
2023-02-19T10:04:27.710Z,987.71
2023-02-19T10:05:27.833Z,987.69
2023-02-19T10:06:27.697Z,987.71
2023-02-19T10:07:27.679Z,987.72
2023-02-19T10:08:27.698Z,987.73
2023-02-19T10:09:27.693Z,987.73
2023-02-19T10:10:27.704Z,987.75
2023-02-19T10:11:27.665Z,987.75
2023-02-19T10:12:27.645Z,987.77
2023-02-19T10:13:27.650Z,987.79
2023-02-19T10:14:27.633Z,987.79
2023-02-19T10:15:27.647Z,987.80
2023-02-19T10:16:27.669Z,987.84
2023-02-19T10:17:27.604Z,987.85
2023-02-19T10:18:27.603Z,987.89
2023-02-19T10:19:27.596Z,987.89
2023-02-19T10:20:27.587Z,987.93
2023-02-19T10:21:27.611Z,987.92
2023-02-19T10:22:27.579Z,987.94
2023-02-19T10:23:27.566Z,987.94
2023-02-19T10:24:27.559Z,987.96
2023-02-19T10:25:27.559Z,987.97
2023-02-19T10:26:27.579Z,987.98
2023-02-19T10:27:27.570Z,987.99
2023-02-19T10:28:27.558Z,987.99
2023-02-19T10:29:27.530Z,988.01
2023-02-19T10:30:27.544Z,988.03
2023-02-19T10:31:27.643Z,988.05
2023-02-19T10:32:27.536Z,988.07
2023-02-19T10:33:27.553Z,988.10
2023-02-19T10:34:27.687Z,988.16
2023-02-19T10:35:27.501Z,988.20
2023-02-19T10:36:29.769Z,988.23
2023-02-19T10:37:27.506Z,988.24
2023-02-19T10:38:27.477Z,988.26
2023-02-19T10:39:27.474Z,988.27
2023-02-19T10:40:27.461Z,988.29
2023-02-19T10:41:27.442Z,988.31
2023-02-19T10:42:27.511Z,988.32
2023-02-19T10:43:27.446Z,988.33
2023-02-19T10:44:27.548Z,988.36
2023-02-19T10:45:27.431Z,988.38
2023-02-19T10:46:27.485Z,988.41
2023-02-19T10:47:27.439Z,988.43
2023-02-19T10:48:27.424Z,988.44
2023-02-19T10:49:27.466Z,988.46
2023-02-19T10:50:27.400Z,988.44
2023-02-19T10:51:27.393Z,988.43
2023-02-19T10:52:27.393Z,988.42
2023-02-19T10:53:27.380Z,988.42
2023-02-19T10:54:27.440Z,988.44
2023-02-19T10:55:27.364Z,988.45
2023-02-19T10:56:27.353Z,988.48
2023-02-19T10:57:27.349Z,988.50
2023-02-19T10:58:27.375Z,988.54
2023-02-19T10:59:27.378Z,988.58
2023-02-19T11:00:27.371Z,988.62
2023-02-19T11:01:27.377Z,988.65
2023-02-19T11:02:27.318Z,988.68
2023-02-19T11:03:27.340Z,988.70
2023-02-19T11:04:27.390Z,988.69
2023-02-19T11:05:27.335Z,988.67
2023-02-19T11:06:27.317Z,988.70
2023-02-19T11:07:27.290Z,988.71
2023-02-19T11:08:27.290Z,988.73
2023-02-19T11:09:27.275Z,988.76
2023-02-19T11:10:27.277Z,988.74
2023-02-19T11:11:27.326Z,988.71
2023-02-19T11:12:27.262Z,988.74
2023-02-19T11:13:27.255Z,988.72
2023-02-19T11:14:27.316Z,988.73
2023-02-19T11:15:27.253Z,988.73
2023-02-19T11:16:27.267Z,988.80
2023-02-19T11:17:27.221Z,988.84
2023-02-19T11:18:27.230Z,988.88
2023-02-19T11:19:27.233Z,988.83
2023-02-19T11:20:27.205Z,988.86
2023-02-19T11:21:27.196Z,988.85
2023-02-19T11:22:27.183Z,988.86
2023-02-19T11:23:27.179Z,988.88
2023-02-19T11:24:27.225Z,988.85
2023-02-19T11:25:27.173Z,988.83
2023-02-19T11:26:27.172Z,988.84
2023-02-19T11:27:27.157Z,988.86
2023-02-19T11:28:27.186Z,988.82
2023-02-19T11:29:27.177Z,988.82
2023-02-19T11:30:27.152Z,988.80
2023-02-19T11:31:27.205Z,988.77
2023-02-19T11:32:27.216Z,988.76
2023-02-19T11:33:27.128Z,988.77
2023-02-19T11:34:27.147Z,988.79
2023-02-19T11:35:27.123Z,988.81
2023-02-19T11:36:29.477Z,988.82
2023-02-19T11:37:27.085Z,988.83
2023-02-19T11:38:27.089Z,988.84
2023-02-19T11:39:27.084Z,988.85
2023-02-19T11:40:27.104Z,988.84
2023-02-19T11:41:27.088Z,988.83
2023-02-19T11:42:29.259Z,988.84
2023-02-19T11:43:27.052Z,988.84
2023-02-19T11:44:27.056Z,988.85
2023-02-19T11:45:27.063Z,988.84
2023-02-19T11:46:27.070Z,988.82
2023-02-19T11:47:27.052Z,988.79
2023-02-19T11:48:27.829Z,988.79
2023-02-19T11:49:27.049Z,988.79
2023-02-19T11:50:27.047Z,988.79
2023-02-19T11:51:27.027Z,988.80
2023-02-19T11:52:26.997Z,988.80
2023-02-19T11:53:27.014Z,988.79
2023-02-19T11:54:26.979Z,988.77
2023-02-19T11:55:26.972Z,988.75
2023-02-19T11:56:26.978Z,988.73
2023-02-19T11:57:26.963Z,988.73
2023-02-19T11:58:26.952Z,988.75
2023-02-19T11:59:26.950Z,988.76
2023-02-19T12:00:26.961Z,988.77
2023-02-19T12:01:26.933Z,988.81
2023-02-19T12:02:26.917Z,988.86
2023-02-19T12:03:26.925Z,988.88
2023-02-19T12:04:26.920Z,988.88
2023-02-19T12:05:26.959Z,988.89
2023-02-19T12:06:26.916Z,988.90
2023-02-19T12:07:26.907Z,988.92
2023-02-19T12:08:26.914Z,988.94
2023-02-19T12:09:26.877Z,988.98
2023-02-19T12:10:26.866Z,989.00
2023-02-19T12:11:26.859Z,989.03
2023-02-19T12:12:26.884Z,989.04
2023-02-19T12:13:26.871Z,989.04
2023-02-19T12:14:26.831Z,989.02
2023-02-19T12:15:26.832Z,989.01
2023-02-19T12:16:26.874Z,989.02
2023-02-19T12:17:26.830Z,989.05
2023-02-19T12:18:26.812Z,989.08
2023-02-19T12:19:26.807Z,989.14
2023-02-19T12:20:26.807Z,989.11
2023-02-19T12:21:26.790Z,989.14
2023-02-19T12:22:26.806Z,989.16
2023-02-19T12:23:26.806Z,989.14
2023-02-19T12:24:26.785Z,989.13
2023-02-19T12:25:26.804Z,989.15
2023-02-19T12:26:26.770Z,989.16
2023-02-19T12:27:26.743Z,989.13
2023-02-19T12:28:26.731Z,989.13